Time;durP1;ratioP1;P1;durP2;ratioP2;P2;SDS_P1;SDS_P2;PMS_P1;PMS_P2;Temp;Humidity;BMP_temperature;BMP_pressure;BME280_temperature;BME280_humidity;BME280_pressure;Samples;Min_cycle;Max_cycle;Signal;HPM_P1;HPM_P2
2023/06/09 00:02:27;;;;;;;14.90;8.30;;;;;;;18.57;59.89;100414.21;219381;1265;141884;-90
2023/06/09 00:07:29;;;;;;;13.10;8.40;;;;;;;18.50;59.92;100415.08;219909;1266;138115;-89
2023/06/09 00:12:30;;;;;;;14.90;9.10;;;;;;;18.43;59.95;100416.82;219427;1266;140300;-90
2023/06/09 00:17:30;;;;;;;19.90;9.00;;;;;;;18.35;60.14;100412.36;219945;1268;138182;-90
2023/06/09 00:22:31;;;;;;;13.60;9.90;;;;;;;18.28;59.74;100412.09;219632;1264;141138;-90
2023/06/09 00:27:31;;;;;;;13.90;10.10;;;;;;;18.21;60.10;100407.45;219938;1268;138668;-90
2023/06/09 00:32:32;;;;;;;14.30;9.70;;;;;;;18.14;60.98;100409.75;219887;1266;141269;-90
2023/06/09 00:37:32;;;;;;;13.90;9.60;;;;;;;18.05;61.43;100411.21;221201;1266;138471;-89
2023/06/09 00:42:33;;;;;;;14.50;10.20;;;;;;;17.94;61.18;100413.33;220600;1266;142181;-90
2023/06/09 00:47:34;;;;;;;17.90;11.40;;;;;;;17.89;61.38;100412.94;221266;1266;138315;-90
2023/06/09 00:52:34;;;;;;;13.70;10.30;;;;;;;17.84;61.39;100411.45;220740;1265;139949;-90
2023/06/09 00:57:34;;;;;;;13.00;9.60;;;;;;;17.78;61.89;100417.11;221184;1268;138133;-90
2023/06/09 01:02:38;;;;;;;14.00;9.50;;;;;;;17.71;62.17;100417.80;220712;1265;140357;-90
2023/06/09 01:07:42;;;;;;;17.20;9.90;;;;;;;17.64;62.59;100414.83;221165;1266;138943;-90
2023/06/09 01:13:03;;;;;;;15.70;10.30;;;;;;;17.57;63.30;100411.54;221276;1265;140446;-90
2023/06/09 01:18:08;;;;;;;14.20;9.20;;;;;;;17.48;64.76;100408.05;223666;1265;138490;-90
2023/06/09 01:23:20;;;;;;;14.70;10.90;;;;;;;17.37;64.52;100409.23;222464;1266;141369;-89
2023/06/09 01:28:23;;;;;;;15.80;9.70;;;;;;;17.30;65.48;100416.11;220105;1268;103685;-89
2023/06/09 01:33:25;;;;;;;14.80;10.60;;;;;;;17.21;65.49;100414.66;219586;1266;140983;-90
2023/06/09 01:38:26;;;;;;;14.30;9.80;;;;;;;17.10;65.46;100412.23;219915;1266;138248;-90
2023/06/09 01:43:27;;;;;;;12.00;8.60;;;;;;;16.98;66.02;100410.73;219512;1268;141136;-90
2023/06/09 01:48:41;;;;;;;15.20;10.20;;;;;;;16.89;66.25;100411.98;219924;1266;138708;-90
2023/06/09 01:53:48;;;;;;;13.60;9.90;;;;;;;16.79;66.78;100416.41;219421;1268;140747;-89
2023/06/09 01:58:55;;;;;;;14.30;10.30;;;;;;;16.68;66.63;100411.18;219534;1268;140414;-89
2023/06/09 02:03:57;;;;;;;12.80;9.30;;;;;;;16.61;66.93;100406.84;219964;1268;97943;-89
2023/06/09 02:08:58;;;;;;;13.40;9.70;;;;;;;16.53;67.55;100406.86;219417;1268;140231;-89
2023/06/09 02:13:58;;;;;;;15.90;9.70;;;;;;;16.46;66.97;100408.23;219873;1267;138858;-88
2023/06/09 02:19:00;;;;;;;14.50;10.00;;;;;;;16.42;66.78;100405.75;219466;1265;141038;-89
2023/06/09 02:24:00;;;;;;;21.20;11.30;;;;;;;16.39;66.85;100405.84;220677;1268;139352;-89
2023/06/09 02:29:01;;;;;;;15.90;10.70;;;;;;;16.35;67.01;100407.61;220582;1266;141298;-89
2023/06/09 02:34:01;;;;;;;14.90;9.80;;;;;;;16.32;67.16;100405.91;221382;1266;98662;-89
2023/06/09 02:39:02;;;;;;;17.70;11.00;;;;;;;16.28;67.08;100404.92;220339;1265;139875;-89
2023/06/09 02:44:04;;;;;;;16.50;11.00;;;;;;;16.23;68.36;100406.10;220865;1266;138418;-89
2023/06/09 02:49:05;;;;;;;13.20;9.20;;;;;;;16.17;68.29;100407.14;220343;1264;141036;-89
2023/06/09 02:54:05;;;;;;;12.90;9.00;;;;;;;16.12;68.79;100398.46;220758;1266;139328;-89
2023/06/09 02:59:07;;;;;;;12.50;9.40;;;;;;;16.08;69.43;100396.36;220504;1265;140115;-89
2023/06/09 03:04:08;;;;;;;14.20;10.50;;;;;;;16.02;69.99;100390.56;223475;1266;96209;-89
2023/06/09 03:09:12;;;;;;;16.40;10.80;;;;;;;15.96;70.86;100386.52;223172;1265;140256;-89
2023/06/09 03:14:13;;;;;;;13.60;9.20;;;;;;;15.91;71.71;100388.88;219813;1272;139337;-90
2023/06/09 03:19:14;;;;;;;15.30;10.30;;;;;;;15.87;71.85;100391.61;219308;1266;141461;-90
2023/06/09 03:24:14;;;;;;;17.30;10.90;;;;;;;15.85;72.49;100394.02;219794;1266;140052;-90
2023/06/09 03:29:15;;;;;;;14.60;9.90;;;;;;;15.81;73.07;100402.31;219248;1268;141118;-90
2023/06/09 03:34:15;;;;;;;15.70;10.90;;;;;;;15.79;73.20;100406.60;219955;1268;99198;-89
2023/06/09 03:39:16;;;;;;;13.80;10.00;;;;;;;15.80;73.27;100411.98;219216;1267;141636;-90
2023/06/09 03:44:17;;;;;;;15.60;10.60;;;;;;;15.80;73.66;100414.76;219653;1266;139108;-90
2023/06/09 03:49:17;;;;;;;16.50;10.10;;;;;;;15.82;74.34;100417.27;219352;1268;139824;-90
2023/06/09 03:54:18;;;;;;;15.80;10.60;;;;;;;15.84;75.45;100422.02;219637;1269;139311;-90
2023/06/09 03:59:18;;;;;;;15.90;9.90;;;;;;;15.86;76.48;100426.02;219133;1266;141062;-90
2023/06/09 04:04:19;;;;;;;12.70;9.20;;;;;;;15.91;77.42;100432.34;220029;1268;97932;-89
2023/06/09 04:09:19;;;;;;;13.70;9.10;;;;;;;15.96;77.81;100436.40;219950;1266;141525;-90
2023/06/09 04:14:19;;;;;;;13.20;8.30;;;;;;;16.03;78.18;100439.50;220931;1268;139365;-89
2023/06/09 04:19:20;;;;;;;14.60;8.90;;;;;;;16.12;78.75;100435.19;220465;1266;141165;-89
2023/06/09 04:24:21;;;;;;;17.00;9.30;;;;;;;16.23;79.19;100434.04;220929;1266;139638;-89
2023/06/09 04:29:22;;;;;;;12.80;8.40;;;;;;;16.43;79.24;100434.77;220283;1266;142468;-89
2023/06/09 04:34:25;;;;;;;13.90;8.40;;;;;;;16.74;78.36;100436.73;221114;1266;99218;-90
2023/06/09 04:39:28;;;;;;;15.80;10.10;;;;;;;17.03;77.77;100433.29;220430;1266;139908;-90
2023/06/09 04:44:30;;;;;;;17.10;10.90;;;;;;;17.30;76.64;100435.73;220853;1268;139431;-90
2023/06/09 04:49:31;;;;;;;14.00;10.70;;;;;;;17.55;75.72;100437.96;222173;1267;141130;-90
2023/06/09 04:54:32;;;;;;;15.20;11.00;;;;;;;17.77;75.04;100440.60;223556;1268;139606;-90
2023/06/09 04:59:32;;;;;;;33.80;12.70;;;;;;;17.95;74.43;100438.67;221455;1266;141729;-90
2023/06/09 05:04:33;;;;;;;17.80;13.00;;;;;;;18.17;73.84;100439.93;220229;1268;98102;-91
2023/06/09 05:09:33;;;;;;;16.30;12.00;;;;;;;18.42;73.46;100443.51;219509;1269;140867;-90
2023/06/09 05:14:33;;;;;;;14.90;12.00;;;;;;;18.71;73.47;100449.98;219997;1268;138950;-91
2023/06/09 05:19:34;;;;;;;15.30;11.00;;;;;;;19.13;73.31;100448.72;219452;1269;140812;-91
2023/06/09 05:24:34;;;;;;;15.30;10.50;;;;;;;19.69;71.77;100448.07;220029;1269;139769;-90
2023/06/09 05:29:35;;;;;;;14.40;10.60;;;;;;;20.37;70.56;100445.18;219509;1269;142478;-91
2023/06/09 05:34:35;;;;;;;13.30;9.00;;;;;;;21.14;69.30;100450.62;219685;1265;97896;-91
2023/06/09 05:39:35;;;;;;;13.00;8.60;;;;;;;22.05;68.02;100453.43;219173;1268;139576;-91
2023/06/09 05:44:36;;;;;;;12.50;8.30;;;;;;;22.99;64.90;100452.98;220140;1267;138561;-90
2023/06/09 05:49:37;;;;;;;13.40;8.00;;;;;;;23.93;63.03;100460.72;219592;1268;141665;-90
2023/06/09 05:54:37;;;;;;;13.10;7.30;;;;;;;24.82;60.16;100459.06;220677;1270;140029;-90
2023/06/09 05:59:39;;;;;;;14.30;7.50;;;;;;;25.63;57.55;100463.38;220693;1267;141664;-90
2023/06/09 06:04:40;;;;;;;12.00;7.40;;;;;;;26.45;55.28;100465.70;221315;1267;97956;-90
2023/06/09 06:09:41;;;;;;;12.50;6.70;;;;;;;27.17;53.82;100470.77;220624;1266;139109;-91
2023/06/09 06:14:41;;;;;;;11.50;6.30;;;;;;;27.86;51.22;100469.21;221198;1267;138246;-91
2023/06/09 06:19:41;;;;;;;10.50;6.20;;;;;;;28.43;48.56;100467.07;220491;1268;139759;-92
2023/06/09 06:24:42;;;;;;;10.40;6.90;;;;;;;28.83;46.90;100467.70;221135;1266;138312;-89
2023/06/09 06:29:42;;;;;;;13.90;7.00;;;;;;;29.19;45.67;100474.02;220626;1265;140526;-91
2023/06/09 06:34:43;;;;;;;9.90;6.40;;;;;;;29.75;45.12;100471.73;221191;1267;275332;-91
2023/06/09 06:39:43;;;;;;;12.10;5.60;;;;;;;30.31;43.86;100462.56;223088;1267;140021;-93
2023/06/09 06:44:43;;;;;;;10.70;5.20;;;;;;;30.73;42.58;100464.56;223627;1267;138808;-92
2023/06/09 06:49:44;;;;;;;7.00;4.30;;;;;;;31.02;40.78;100463.04;220156;1265;141720;-92
2023/06/09 06:54:45;;;;;;;9.90;4.00;;;;;;;31.03;40.29;100470.44;220697;1267;138115;-92
2023/06/09 06:59:45;;;;;;;8.70;4.60;;;;;;;31.16;38.52;100471.38;219733;1267;139563;-92
2023/06/09 07:04:45;;;;;;;8.40;4.10;;;;;;;31.19;38.21;100469.30;220260;1267;97925;-90
2023/06/09 07:09:46;;;;;;;8.30;4.70;;;;;;;31.30;37.50;100472.62;219646;1268;139084;-92
2023/06/09 07:14:47;;;;;;;7.40;4.30;;;;;;;31.42;37.60;100476.23;220467;1267;138002;-92
2023/06/09 07:19:47;;;;;;;8.60;5.00;;;;;;;31.58;36.95;100474.56;219679;1267;139925;-91
2023/06/09 07:24:47;;;;;;;6.90;4.40;;;;;;;31.76;36.80;100472.71;220412;1268;138459;-92
2023/06/09 07:29:48;;;;;;;6.80;4.30;;;;;;;32.13;36.98;100468.56;219878;1267;140148;-90
2023/06/09 07:34:50;;;;;;;9.40;4.60;;;;;;;32.39;35.80;100470.29;220510;1266;99287;-94
2023/06/09 07:39:51;;;;;;;8.10;4.60;;;;;;;32.52;35.83;100465.95;220052;1266;141195;-91
2023/06/09 07:44:51;;;;;;;8.30;4.00;;;;;;;32.63;35.04;100465.57;221111;1266;138598;-94
2023/06/09 07:49:52;;;;;;;9.50;4.10;;;;;;;32.72;33.91;100467.13;221538;1267;139971;-93
2023/06/09 07:54:52;;;;;;;8.40;4.00;;;;;;;32.41;33.04;100466.85;222279;1266;138289;-94
2023/06/09 07:59:53;;;;;;;6.80;4.20;;;;;;;32.76;33.38;100458.28;221465;1267;141084;-90
2023/06/09 08:04:53;;;;;;;9.60;4.50;;;;;;;33.25;31.98;100458.59;221940;1267;97946;-95
2023/06/09 08:09:53;;;;;;;9.20;3.90;;;;;;;33.37;31.91;100455.80;221544;1265;140104;-92
2023/06/09 08:14:54;;;;;;;21.20;16.60;;;;;;;33.52;31.34;100454.04;221912;1266;136651;-93
2023/06/09 08:19:54;;;;;;;14.20;6.30;;;;;;;33.88;31.16;100453.41;221480;1266;140731;-91
2023/06/09 08:24:56;;;;;;;10.10;5.30;;;;;;;34.39;30.68;100453.17;221986;1267;138311;-92
2023/06/09 08:29:57;;;;;;;9.60;4.70;;;;;;;34.33;30.20;100451.73;221142;1267;140194;-92
2023/06/09 08:35:03;;;;;;;14.80;9.40;;;;;;;34.82;30.31;100450.98;221166;1266;138129;-92
2023/06/09 08:40:08;;;;;;;11.30;5.70;;;;;;;35.13;29.43;100451.52;220917;1266;139174;-91
2023/06/09 08:45:18;;;;;;;9.60;7.40;;;;;;;35.64;29.13;100452.81;222310;1265;139836;-92
2023/06/09 08:50:22;;;;;;;50.90;45.30;;;;;;;36.11;28.23;100455.27;221358;1264;139651;-94
2023/06/09 08:55:25;;;;;;;36.10;26.20;;;;;;;35.97;28.15;100456.90;222078;1268;139033;-94
2023/06/09 09:00:28;;;;;;;10.00;5.10;;;;;;;35.80;27.21;100458.73;221784;1266;141473;-92
2023/06/09 09:05:30;;;;;;;11.20;4.60;;;;;;;36.09;27.11;100458.30;221914;1268;138776;-92
2023/06/09 09:10:31;;;;;;;8.00;4.70;;;;;;;36.51;26.47;100454.84;222040;1268;140576;-94
2023/06/09 09:15:32;;;;;;;6.70;4.20;;;;;;;36.42;26.43;100454.47;222055;1265;138256;-91
2023/06/09 09:20:36;;;;;;;8.30;4.40;;;;;;;36.87;26.05;100453.77;220835;1265;141103;-91
2023/06/09 09:25:37;;;;;;;8.00;4.00;;;;;;;37.15;25.46;100446.07;221774;1266;138540;-92
2023/06/09 09:30:54;;;;;;;7.30;4.10;;;;;;;36.94;24.94;100452.68;220919;1265;140291;-90
2023/06/09 09:35:57;;;;;;;7.30;4.00;;;;;;;37.04;25.02;100446.05;222301;1267;137931;-89
2023/06/09 09:40:59;;;;;;;6.30;4.00;;;;;;;37.76;25.00;100442.41;220777;1265;141059;-91
2023/06/09 09:46:05;;;;;;;8.70;4.20;;;;;;;38.48;24.25;100440.60;221306;1268;96336;-90
2023/06/09 09:51:08;;;;;;;7.40;4.50;;;;;;;38.31;22.86;100443.02;220816;1265;139846;-90
2023/06/09 09:56:09;;;;;;;9.90;4.00;;;;;;;38.00;22.94;100435.84;221382;1265;138768;-92
2023/06/09 10:01:11;;;;;;;7.60;3.80;;;;;;;37.10;22.85;100440.08;220791;1266;141592;-92
2023/06/09 10:06:16;;;;;;;7.50;4.20;;;;;;;36.87;22.62;100440.01;221367;1266;137483;-92
2023/06/09 10:11:17;;;;;;;5.90;3.50;;;;;;;36.31;21.82;100436.91;220688;1266;138843;-90
2023/06/09 10:16:18;;;;;;;6.60;3.80;;;;;;;35.62;23.51;100437.55;221395;1265;97535;-93
2023/06/09 10:21:20;;;;;;;6.70;3.50;;;;;;;35.93;23.40;100431.83;220598;1265;139391;-94
2023/06/09 10:26:22;;;;;;;8.80;3.80;;;;;;;36.12;23.24;100427.89;221442;1265;138575;-92
2023/06/09 10:31:25;;;;;;;8.70;4.50;;;;;;;36.04;22.89;100419.42;220877;1265;140326;-94
2023/06/09 10:36:36;;;;;;;6.80;3.60;;;;;;;36.05;22.23;100415.91;221541;1265;138700;-91
2023/06/09 10:41:43;;;;;;;11.00;4.20;;;;;;;36.42;23.50;100409.66;220463;1265;139708;-90
2023/06/09 10:46:46;;;;;;;8.00;4.00;;;;;;;37.17;23.17;100405.38;221114;1268;102445;-91
2023/06/09 10:51:47;;;;;;;8.00;3.50;;;;;;;37.28;22.31;100406.83;220499;1266;140310;-93
2023/06/09 10:56:56;;;;;;;6.00;3.80;;;;;;;36.79;22.11;100400.39;221127;1268;137997;-95
2023/06/09 11:02:02;;;;;;;9.30;4.40;;;;;;;36.42;22.60;100397.48;220555;1268;139867;-90
2023/06/09 11:07:23;;;;;;;7.30;3.80;;;;;;;36.46;22.13;100390.52;221250;1265;138220;-92
2023/06/09 11:12:28;;;;;;;7.70;4.00;;;;;;;36.24;22.02;100383.65;220600;1265;140185;-92
2023/06/09 11:17:40;;;;;;;7.50;3.90;;;;;;;36.68;22.03;100386.33;221143;1266;138614;-90
2023/06/09 11:22:41;;;;;;;8.50;4.00;;;;;;;36.75;21.36;100377.10;220726;1265;140206;-92
2023/06/09 11:27:43;;;;;;;7.40;4.00;;;;;;;36.55;21.57;100371.27;221159;1265;138701;-91
2023/06/09 11:32:44;;;;;;;7.40;4.20;;;;;;;37.00;21.95;100364.52;220421;1268;139712;-94
2023/06/09 11:38:08;;;;;;;8.80;4.60;;;;;;;36.82;21.45;100359.86;221131;1265;138956;-93
2023/06/09 11:43:09;;;;;;;11.60;4.40;;;;;;;37.03;22.60;100355.09;220619;1265;140543;-90
2023/06/09 11:48:10;;;;;;;12.80;4.30;;;;;;;37.19;21.78;100347.71;221300;1266;139161;-93
2023/06/09 11:53:12;;;;;;;9.00;4.20;;;;;;;37.00;21.30;100340.65;220845;1268;139698;-89
2023/06/09 11:58:16;;;;;;;7.20;4.40;;;;;;;37.17;21.29;100351.66;221413;1265;98374;-92
2023/06/09 12:03:19;;;;;;;7.70;3.70;;;;;;;36.75;20.43;100348.72;221099;1265;139545;-92
2023/06/09 12:08:20;;;;;;;7.70;4.30;;;;;;;36.45;21.25;100336.79;221075;1266;137896;-92
2023/06/09 12:13:20;;;;;;;5.70;3.80;;;;;;;36.95;21.61;100334.48;220757;1265;140775;-90
2023/06/09 12:18:21;;;;;;;6.70;4.00;;;;;;;36.83;20.77;100329.90;221460;1266;138430;-95
2023/06/09 12:23:27;;;;;;;7.40;3.80;;;;;;;36.54;20.96;100328.89;220576;1265;140838;-90
2023/06/09 12:28:29;;;;;;;7.40;3.80;;;;;;;36.62;21.32;100320.98;220889;1265;97866;-89
2023/06/09 12:33:29;;;;;;;8.90;3.70;;;;;;;36.36;20.95;100315.48;220332;1266;140578;-90
2023/06/09 12:38:35;;;;;;;7.20;4.00;;;;;;;36.17;21.42;100312.75;221264;1265;138649;-93
2023/06/09 12:43:59;;;;;;;6.50;4.00;;;;;;;36.27;20.99;100308.02;220726;1265;139169;-90
2023/06/09 12:49:08;;;;;;;9.50;3.90;;;;;;;35.90;21.13;100308.17;220758;1268;138778;-89
2023/06/09 12:54:11;;;;;;;8.40;3.80;;;;;;;35.25;21.09;100313.13;221023;1268;138551;-91
2023/06/09 12:59:12;;;;;;;8.30;3.70;;;;;;;34.99;21.57;100298.33;221449;1266;141094;-93
2023/06/09 13:04:12;;;;;;;8.10;4.10;;;;;;;35.06;21.93;100300.77;221433;1266;97873;-93
2023/06/09 13:09:13;;;;;;;8.10;3.80;;;;;;;34.87;21.03;100310.83;220818;1268;161124;-91
2023/06/09 13:14:13;;;;;;;7.40;3.50;;;;;;;34.52;20.87;100304.45;221313;1265;138176;-90
2023/06/09 13:19:14;;;;;;;8.00;4.00;;;;;;;34.51;21.42;100298.80;221039;1265;140321;-92
2023/06/09 13:24:14;;;;;;;8.40;3.90;;;;;;;34.62;21.92;100293.73;221227;1266;138057;-90
2023/06/09 13:29:15;;;;;;;7.40;4.00;;;;;;;34.55;22.78;100289.17;220694;1265;138977;-91
2023/06/09 13:34:15;;;;;;;6.40;3.70;;;;;;;34.49;22.34;100293.65;221301;1265;98049;-93
2023/06/09 13:39:16;;;;;;;8.10;3.40;;;;;;;34.30;22.05;100296.04;220793;1265;139565;-94
2023/06/09 13:44:16;;;;;;;7.10;3.60;;;;;;;34.13;22.46;100279.18;221406;1265;137977;-90
2023/06/09 13:49:16;;;;;;;6.90;3.90;;;;;;;34.00;22.57;100271.39;220683;1264;140832;-90
2023/06/09 13:54:17;;;;;;;6.70;3.70;;;;;;;33.70;22.75;100268.86;221504;1265;138278;-93
2023/06/09 13:59:17;;;;;;;11.50;3.90;;;;;;;33.61;23.16;100268.36;220777;1265;140350;-94
2023/06/09 14:04:18;;;;;;;7.80;3.20;;;;;;;33.36;23.01;100282.84;221642;1265;97823;-93
2023/06/09 14:09:18;;;;;;;8.00;3.60;;;;;;;33.25;24.07;100278.96;220945;1265;139924;-91
2023/06/09 14:14:18;;;;;;;8.00;4.00;;;;;;;33.39;23.49;100267.67;221241;1265;138298;-90
2023/06/09 14:19:19;;;;;;;6.20;3.60;;;;;;;33.30;23.38;100260.77;221104;1265;140249;-93
2023/06/09 14:24:20;;;;;;;7.70;4.00;;;;;;;33.24;23.65;100260.24;221433;1266;138162;-95
2023/06/09 14:29:20;;;;;;;8.30;4.00;;;;;;;33.24;23.81;100248.89;221031;1265;139781;-91
2023/06/09 14:34:21;;;;;;;8.20;3.60;;;;;;;33.20;23.68;100247.17;221638;1264;97947;-91
2023/06/09 14:39:22;;;;;;;7.00;4.20;;;;;;;32.77;23.56;100246.13;220815;1265;141532;-93
2023/06/09 14:44:22;;;;;;;8.30;3.80;;;;;;;32.86;24.58;100239.10;221415;1265;138178;-92
2023/06/09 14:49:23;;;;;;;9.10;4.40;;;;;;;33.12;25.04;100237.89;220909;1265;140501;-94
2023/06/09 14:54:23;;;;;;;8.00;3.90;;;;;;;33.16;24.61;100235.45;221289;1265;138183;-93
2023/06/09 14:59:23;;;;;;;6.30;3.60;;;;;;;33.00;24.03;100233.60;220993;1265;140199;-92
2023/06/09 15:04:24;;;;;;;7.20;3.70;;;;;;;32.85;24.66;100239.33;221445;1265;97937;-90
2023/06/09 15:09:24;;;;;;;7.40;3.70;;;;;;;32.66;24.51;100250.44;220952;1264;140037;-93
2023/06/09 15:14:25;;;;;;;7.40;3.80;;;;;;;32.41;24.51;100250.05;221487;1265;137862;-92
2023/06/09 15:19:25;;;;;;;9.10;4.00;;;;;;;32.24;24.87;100247.95;220913;1265;141198;-94
2023/06/09 15:24:25;;;;;;;11.10;4.20;;;;;;;32.12;25.60;100238.73;221366;1265;139035;-91
2023/06/09 15:29:26;;;;;;;8.40;4.00;;;;;;;31.96;25.66;100243.35;220860;1265;229709;-92
2023/06/09 15:34:26;;;;;;;8.10;4.00;;;;;;;31.63;24.88;100244.73;221441;1265;97903;-92
2023/06/09 15:39:27;;;;;;;7.80;3.80;;;;;;;31.35;24.94;100244.80;221211;1266;139524;-93
2023/06/09 15:44:27;;;;;;;8.90;4.00;;;;;;;31.03;25.10;100249.82;221649;1265;136833;-94
2023/06/09 15:49:28;;;;;;;10.40;4.50;;;;;;;30.76;25.79;100253.55;221030;1265;139308;-93
2023/06/09 15:54:29;;;;;;;7.30;4.20;;;;;;;30.54;26.19;100248.31;221737;1265;137313;-94
2023/06/09 15:59:29;;;;;;;8.80;4.50;;;;;;;30.35;26.74;100246.34;221137;1265;139779;-93
2023/06/09 16:04:30;;;;;;;10.70;4.40;;;;;;;30.12;27.23;100250.56;221361;1265;97892;-94
2023/06/09 16:09:31;;;;;;;8.60;4.10;;;;;;;30.13;28.31;100244.27;221068;1264;139903;-95
2023/06/09 16:14:31;;;;;;;12.00;3.90;;;;;;;30.08;27.80;100243.23;221416;1268;138297;-94
2023/06/09 16:19:31;;;;;;;8.60;3.80;;;;;;;29.92;27.63;100239.79;220918;1264;140533;-95
2023/06/09 16:24:32;;;;;;;7.20;4.00;;;;;;;29.76;28.34;100235.48;221197;1268;138762;-94
2023/06/09 16:29:32;;;;;;;10.80;4.00;;;;;;;29.77;28.89;100237.23;220814;1268;140560;-93
2023/06/09 16:34:32;;;;;;;7.60;4.00;;;;;;;29.64;28.01;100239.90;221293;1265;97947;-91
2023/06/09 16:39:33;;;;;;;7.80;3.70;;;;;;;29.58;28.62;100238.70;220697;1265;141632;-94
2023/06/09 16:44:33;;;;;;;9.70;4.00;;;;;;;29.55;28.79;100243.63;221282;1265;137856;-93
2023/06/09 16:49:34;;;;;;;7.90;4.00;;;;;;;29.50;28.86;100242.25;220557;1266;139350;-94
2023/06/09 16:54:35;;;;;;;9.40;4.60;;;;;;;29.40;28.63;100245.21;221345;1265;137938;-94
2023/06/09 16:59:35;;;;;;;9.20;4.50;;;;;;;29.27;29.01;100246.34;220846;1265;140601;-93
2023/06/09 17:04:35;;;;;;;7.30;3.90;;;;;;;29.11;28.28;100249.31;221262;1265;97931;-92
2023/06/09 17:09:36;;;;;;;10.90;4.20;;;;;;;29.02;28.01;100248.44;220759;1266;140235;-92
2023/06/09 17:14:36;;;;;;;12.50;4.40;;;;;;;28.92;27.83;100248.73;221184;1266;139232;-93
2023/06/09 17:19:36;;;;;;;8.20;4.30;;;;;;;28.76;27.99;100253.26;220841;1265;140132;-95
2023/06/09 17:24:37;;;;;;;6.70;4.20;;;;;;;28.58;28.26;100256.28;221161;1266;137938;-95
2023/06/09 17:29:37;;;;;;;7.00;3.70;;;;;;;28.41;28.39;100259.29;220626;1266;139729;-92
2023/06/09 17:34:37;;;;;;;7.40;3.40;;;;;;;28.24;28.72;100266.90;221233;1264;98112;-93
2023/06/09 17:39:38;;;;;;;8.40;4.30;;;;;;;28.07;29.17;100266.02;220848;1264;139697;-92
2023/06/09 17:44:38;;;;;;;10.20;4.20;;;;;;;27.89;29.65;100274.64;221153;1268;138126;-92
2023/06/09 17:49:39;;;;;;;7.80;3.90;;;;;;;27.68;30.21;100285.23;220517;1265;140656;-92
2023/06/09 17:54:39;;;;;;;7.40;4.20;;;;;;;27.45;31.31;100291.18;220998;1264;138070;-93
2023/06/09 17:59:40;;;;;;;9.70;5.10;;;;;;;27.27;32.15;100295.41;220566;1266;140408;-92
2023/06/09 18:04:40;;;;;;;9.00;5.20;;;;;;;27.00;33.70;100303.60;221140;1266;97682;-94
2023/06/09 18:09:41;;;;;;;8.70;5.90;;;;;;;26.74;34.88;100303.11;220531;1266;140571;-92
2023/06/09 18:14:41;;;;;;;10.90;5.50;;;;;;;26.53;36.07;100307.83;221015;1265;138028;-93
2023/06/09 18:19:42;;;;;;;12.30;5.80;;;;;;;26.35;36.76;100316.80;220528;1266;139918;-91
2023/06/09 18:24:42;;;;;;;10.10;6.30;;;;;;;26.17;38.02;100320.27;221167;1266;139176;-91
2023/06/09 18:29:43;;;;;;;11.50;6.20;;;;;;;25.98;38.48;100322.28;220819;1266;140035;-91
2023/06/09 18:34:48;;;;;;;9.40;5.70;;;;;;;25.79;39.35;100332.92;220848;1268;362218;-92
2023/06/09 18:39:48;;;;;;;16.10;7.00;;;;;;;25.63;39.90;100340.23;220415;1265;141065;-91
2023/06/09 18:44:49;;;;;;;12.20;6.10;;;;;;;25.46;40.57;100339.83;220952;1265;138852;-93
2023/06/09 18:49:49;;;;;;;10.10;5.90;;;;;;;25.31;41.13;100339.78;220686;1265;140256;-91
2023/06/09 18:54:50;;;;;;;10.60;5.90;;;;;;;25.17;42.05;100346.67;221315;1265;138307;-90
2023/06/09 18:59:51;;;;;;;9.70;6.00;;;;;;;25.04;42.29;100346.90;221064;1264;141460;-90
2023/06/09 19:04:51;;;;;;;11.00;5.60;;;;;;;24.94;42.54;100356.60;221422;1266;97725;-88
2023/06/09 19:09:53;;;;;;;9.50;6.00;;;;;;;24.84;42.76;100366.42;220916;1266;140175;-90
2023/06/09 19:14:53;;;;;;;14.40;7.20;;;;;;;24.75;43.14;100376.19;221371;1263;138538;-90
2023/06/09 19:19:55;;;;;;;10.90;6.40;;;;;;;24.63;43.61;100382.23;220901;1265;141050;-92
2023/06/09 19:24:55;;;;;;;15.00;6.30;;;;;;;24.48;44.20;100385.94;221222;1266;138351;-91
2023/06/09 19:29:56;;;;;;;11.80;6.80;;;;;;;24.35;44.74;100389.15;221055;1266;140058;-90
2023/06/09 19:34:56;;;;;;;12.90;7.20;;;;;;;24.23;45.08;100388.41;221381;1266;138507;-91
2023/06/09 19:39:56;;;;;;;12.40;7.50;;;;;;;24.09;45.25;100397.49;220964;1264;140186;-91
2023/06/09 19:44:57;;;;;;;11.40;7.00;;;;;;;23.96;45.57;100403.77;221376;1266;138058;-91
2023/06/09 19:49:57;;;;;;;12.40;8.00;;;;;;;23.84;45.75;100406.17;221065;1265;141183;-92
2023/06/09 19:54:58;;;;;;;14.00;7.60;;;;;;;23.73;46.42;100406.44;221584;1266;138186;-90
2023/06/09 19:59:58;;;;;;;12.30;8.20;;;;;;;23.60;46.88;100407.95;220762;1264;141255;-92
2023/06/09 20:04:59;;;;;;;13.20;8.30;;;;;;;23.47;47.25;100405.67;221399;1265;138763;-92
2023/06/09 20:09:59;;;;;;;17.10;8.70;;;;;;;23.35;48.01;100408.84;220889;1266;141390;-93
2023/06/09 20:15:00;;;;;;;20.60;8.50;;;;;;;23.16;48.79;100411.23;221282;1266;138349;-91
2023/06/09 20:20:00;;;;;;;17.70;8.30;;;;;;;22.95;49.62;100412.06;220956;1266;142167;-91
2023/06/09 20:25:01;;;;;;;17.20;7.50;;;;;;;22.76;50.29;100413.47;221575;1263;138135;-91
2023/06/09 20:30:01;;;;;;;19.00;8.00;;;;;;;22.59;50.91;100416.77;220826;1264;140120;-91
2023/06/09 20:35:02;;;;;;;12.20;7.50;;;;;;;22.47;51.46;100419.97;221403;1266;138169;-93
2023/06/09 20:40:04;;;;;;;11.20;7.50;;;;;;;22.38;51.67;100421.87;220864;1264;139809;-87
2023/06/09 20:45:05;;;;;;;12.70;8.50;;;;;;;22.28;52.25;100431.77;221187;1265;138517;-90
2023/06/09 20:50:06;;;;;;;11.30;7.50;;;;;;;22.18;52.13;100433.81;220892;1266;140642;-92
2023/06/09 20:55:07;;;;;;;14.00;8.00;;;;;;;22.11;52.36;100435.20;221315;1264;138280;-90
2023/06/09 21:00:08;;;;;;;11.80;7.60;;;;;;;22.06;52.70;100438.36;220628;1266;141022;-91
2023/06/09 21:05:09;;;;;;;16.50;7.50;;;;;;;22.01;52.93;100444.86;221345;1266;138265;-91
2023/06/09 21:10:09;;;;;;;11.90;7.70;;;;;;;21.93;52.85;100444.33;220416;1264;140549;-92
2023/06/09 21:15:10;;;;;;;14.00;8.00;;;;;;;21.87;53.02;100443.91;221145;1268;138613;-91
2023/06/09 21:20:14;;;;;;;13.40;7.30;;;;;;;21.79;53.08;100443.81;220829;1264;140333;-91
2023/06/09 21:25:16;;;;;;;13.30;8.00;;;;;;;21.69;54.08;100444.35;221418;1265;139411;-91
2023/06/09 21:30:16;;;;;;;12.30;7.70;;;;;;;21.56;54.11;100434.70;220711;1264;139918;-91
2023/06/09 21:35:17;;;;;;;12.00;6.70;;;;;;;21.45;53.91;100436.60;221230;1266;138262;-91
2023/06/09 21:40:18;;;;;;;10.50;7.80;;;;;;;21.35;54.04;100433.73;220752;1267;140283;-90
2023/06/09 21:45:18;;;;;;;11.10;6.30;;;;;;;21.23;54.03;100436.35;221051;1267;138045;-91
2023/06/09 21:50:18;;;;;;;12.50;6.50;;;;;;;21.11;53.76;100437.23;220664;1265;140278;-91
2023/06/09 21:55:20;;;;;;;10.50;6.70;;;;;;;21.01;54.28;100441.36;221096;1264;138647;-90
2023/06/09 22:00:20;;;;;;;12.10;6.40;;;;;;;20.87;54.56;100429.48;220551;1266;141242;-91
2023/06/09 22:05:21;;;;;;;11.40;6.80;;;;;;;20.77;54.49;100439.30;220919;1264;138244;-91
2023/06/09 22:10:21;;;;;;;12.70;7.20;;;;;;;20.66;54.68;100438.11;220585;1264;140262;-89
2023/06/09 22:15:22;;;;;;;12.90;7.00;;;;;;;20.55;54.88;100438.66;221113;1266;138004;-90
2023/06/09 22:20:23;;;;;;;13.80;7.60;;;;;;;20.44;55.52;100441.73;220152;1266;140448;-89
2023/06/09 22:25:24;;;;;;;14.20;7.60;;;;;;;20.35;55.51;100450.21;220765;1266;138417;-91
2023/06/09 22:30:24;;;;;;;10.70;7.00;;;;;;;20.27;55.72;100443.50;220166;1266;140279;-88
2023/06/09 22:35:25;;;;;;;10.90;7.00;;;;;;;20.15;55.89;100450.38;220731;1264;138065;-89
2023/06/09 22:40:25;;;;;;;11.80;7.70;;;;;;;20.05;56.54;100451.59;220257;1266;140475;-88